Time;durP1;ratioP1;P1;durP2;ratioP2;P2;SDS_P1;SDS_P2;PMS_P1;PMS_P2;Temp;Humidity;BMP_temperature;BMP_pressure;BME280_temperature;BME280_humidity;BME280_pressure;Samples;Min_cycle;Max_cycle;Signal;HPM_P1;HPM_P2
2021/06/03 00:00:23;;;;;;;4.30;2.37;;;;;;;16.01;61.34;96877.06;3507656;40;20478;-71
2021/06/03 00:02:52;;;;;;;4.20;2.37;;;;;;;15.91;61.82;96873.50;3509607;40;20480;-71
2021/06/03 00:05:21;;;;;;;9.10;2.70;;;;;;;15.60;62.75;96860.28;3509239;40;20912;-71
2021/06/03 00:07:49;;;;;;;5.53;2.93;;;;;;;15.68;62.39;96885.19;3510137;40;20968;-71
2021/06/03 00:10:18;;;;;;;4.93;2.70;;;;;;;15.71;62.67;96883.13;3509437;40;20890;-71
2021/06/03 00:12:47;;;;;;;6.20;3.10;;;;;;;15.51;63.69;96873.44;3509779;40;20666;-71
2021/06/03 00:15:16;;;;;;;5.37;3.07;;;;;;;15.41;63.89;96881.28;3508651;40;20778;-71
2021/06/03 00:17:44;;;;;;;5.57;3.57;;;;;;;15.41;63.92;96882.09;3505808;40;21105;-71
2021/06/03 00:20:16;;;;;;;5.13;2.60;;;;;;;15.45;63.30;96873.94;3507585;40;20841;-70
2021/06/03 00:22:44;;;;;;;3.50;2.70;;;;;;;15.42;63.60;96872.38;3508075;40;20471;-70
2021/06/03 00:25:11;;;;;;;6.10;3.00;;;;;;;15.41;63.24;96876.84;3507104;40;20495;-71
2021/06/03 00:27:39;;;;;;;4.40;2.73;;;;;;;15.49;63.12;96883.28;3509571;40;20952;-71
2021/06/03 00:30:09;;;;;;;8.87;2.90;;;;;;;15.43;62.99;96869.63;3506731;40;20550;-71
2021/06/03 00:32:37;;;;;;;6.13;2.73;;;;;;;15.28;64.02;96889.38;3504448;40;20791;-69
2021/06/03 00:35:06;;;;;;;3.47;2.60;;;;;;;14.95;65.45;96885.06;3506137;40;20737;-69
2021/06/03 00:37:34;;;;;;;4.03;2.97;;;;;;;15.10;65.12;96883.00;3507566;40;20553;-69
2021/06/03 00:40:01;;;;;;;4.43;3.57;;;;;;;15.17;64.24;96878.88;3507102;40;20934;-70
2021/06/03 00:42:29;;;;;;;3.43;2.63;;;;;;;15.03;65.22;96886.16;3508138;40;20455;-70
2021/06/03 00:44:56;;;;;;;4.40;2.60;;;;;;;14.92;65.68;96887.97;3511211;40;20531;-69
2021/06/03 00:47:25;;;;;;;6.20;3.20;;;;;;;15.05;65.13;96891.25;3507577;40;20701;-69
2021/06/03 00:49:53;;;;;;;4.93;3.13;;;;;;;14.97;65.41;96886.63;3506459;40;20469;-70
2021/06/03 00:52:20;;;;;;;4.70;3.00;;;;;;;14.95;65.25;96890.34;3506199;40;20443;-70
2021/06/03 00:54:48;;;;;;;5.50;3.10;;;;;;;15.02;65.14;96891.53;3506105;40;20792;-69
2021/06/03 00:57:15;;;;;;;5.67;3.20;;;;;;;14.92;65.43;96893.25;3505519;40;20570;-69
2021/06/03 00:59:43;;;;;;;7.23;2.90;;;;;;;14.95;65.41;96895.63;3506126;40;20567;-70
2021/06/03 01:02:10;;;;;;;5.70;3.50;;;;;;;15.01;65.11;96889.84;3507948;40;20456;-69
2021/06/03 01:04:39;;;;;;;4.00;2.90;;;;;;;14.93;65.37;96889.63;3507265;40;20483;-69
2021/06/03 01:07:07;;;;;;;6.77;3.60;;;;;;;14.88;65.65;96905.84;3497724;40;20486;-70
2021/06/03 01:09:40;;;;;;;6.23;3.60;;;;;;;14.66;65.88;96885.63;3505242;40;20475;-70
2021/06/03 01:12:15;;;;;;;5.17;3.47;;;;;;;14.80;65.71;96903.00;3508266;40;20530;-70
2021/06/03 01:14:47;;;;;;;5.47;3.27;;;;;;;14.74;66.09;96903.47;3507531;40;20470;-69
2021/06/03 01:17:17;;;;;;;4.80;3.37;;;;;;;14.80;65.92;96906.47;3509033;40;20854;-70
2021/06/03 01:19:49;;;;;;;5.00;3.40;;;;;;;14.79;65.96;96901.31;3506269;40;20472;-70
2021/06/03 01:22:19;;;;;;;5.87;3.23;;;;;;;14.70;66.39;96910.81;3500823;40;20686;-71
2021/06/03 01:24:49;;;;;;;3.93;2.97;;;;;;;14.72;66.33;96905.41;3509517;40;20482;-69
2021/06/03 01:27:19;;;;;;;5.57;3.37;;;;;;;14.63;66.57;96912.25;3508643;40;20859;-69
2021/06/03 01:29:52;;;;;;;5.07;3.53;;;;;;;14.54;66.74;96905.88;3509801;40;20927;-69
2021/06/03 01:32:21;;;;;;;5.10;3.43;;;;;;;14.63;66.37;96899.09;3510418;40;20463;-70
2021/06/03 01:34:50;;;;;;;4.70;3.60;;;;;;;14.78;65.98;96900.47;3512250;40;20471;-69
2021/06/03 01:37:18;;;;;;;5.60;3.50;;;;;;;14.65;66.33;96899.78;3501364;40;20580;-70
2021/06/03 01:39:48;;;;;;;9.07;3.53;;;;;;;14.64;66.63;96903.38;3509566;40;21226;-69
2021/06/03 01:42:18;;;;;;;4.27;3.30;;;;;;;14.62;66.61;96906.16;3510042;40;20573;-72
2021/06/03 01:44:48;;;;;;;4.90;3.50;;;;;;;14.77;65.97;96903.25;3508589;40;20493;-69
2021/06/03 01:47:15;;;;;;;7.57;3.30;;;;;;;14.57;67.13;96915.38;3508032;40;20527;-68
2021/06/03 01:49:43;;;;;;;4.70;3.30;;;;;;;14.46;67.25;96908.28;3508282;40;20678;-71
2021/06/03 01:52:11;;;;;;;8.23;3.50;;;;;;;14.30;68.12;96906.03;3512052;40;21247;-70
2021/06/03 01:54:40;;;;;;;4.53;3.50;;;;;;;14.37;68.26;96901.97;3507660;40;20526;-70
2021/06/03 01:57:10;;;;;;;9.57;3.83;;;;;;;14.54;67.18;96900.59;3508672;40;20662;-69
2021/06/03 01:59:38;;;;;;;7.53;3.90;;;;;;;14.61;67.56;96909.75;3508277;40;20558;-70
2021/06/03 02:02:06;;;;;;;4.30;3.30;;;;;;;13.85;69.95;96908.66;3508794;40;20462;-71
2021/06/03 02:04:33;;;;;;;5.33;2.97;;;;;;;14.09;68.42;96913.81;3509413;40;20491;-70
2021/06/03 02:07:01;;;;;;;5.83;3.10;;;;;;;14.23;67.87;96913.59;3510271;40;20844;-69
2021/06/03 02:09:29;;;;;;;6.07;3.03;;;;;;;14.14;68.49;96921.38;3507578;40;20855;-69
2021/06/03 02:11:56;;;;;;;5.03;3.17;;;;;;;14.34;68.19;96923.28;3508301;40;20446;-70
2021/06/03 02:14:32;;;;;;;10.10;3.67;;;;;;;14.23;68.56;96928.56;3506879;40;20506;-71
2021/06/03 02:17:03;;;;;;;10.33;3.40;;;;;;;14.33;68.29;96920.75;3506745;40;20930;-71
2021/06/03 02:19:34;;;;;;;12.93;3.37;;;;;;;14.22;68.75;96922.44;3507814;40;20866;-72
2021/06/03 02:22:04;;;;;;;4.73;3.37;;;;;;;14.33;68.34;96916.34;3507741;40;21108;-70
2021/06/03 02:24:33;;;;;;;8.07;3.77;;;;;;;14.29;68.06;96922.81;3507286;40;20947;-71
2021/06/03 02:27:00;;;;;;;4.80;3.17;;;;;;;14.30;67.87;96919.22;3507358;40;20954;-71
2021/06/03 02:29:30;;;;;;;5.90;3.30;;;;;;;14.37;67.78;96922.22;3507518;40;20466;-70
2021/06/03 02:31:58;;;;;;;4.93;3.27;;;;;;;14.36;68.03;96921.34;3509949;40;20458;-69
2021/06/03 02:34:26;;;;;;;7.73;3.30;;;;;;;14.28;68.21;96921.13;3508029;40;20470;-71
2021/06/03 02:36:53;;;;;;;6.80;3.97;;;;;;;14.12;68.94;96918.03;3509505;40;20439;-69
2021/06/03 02:39:21;;;;;;;5.73;3.83;;;;;;;14.15;68.91;96923.03;3508528;40;20586;-70
2021/06/03 02:41:49;;;;;;;5.43;4.17;;;;;;;14.08;68.59;96901.63;3518250;40;20439;-69
2021/06/03 02:44:17;;;;;;;6.53;3.93;;;;;;;14.28;68.33;96929.03;3507285;40;20478;-69
2021/06/03 02:46:45;;;;;;;4.50;3.23;;;;;;;14.20;68.54;96928.81;3507954;40;20550;-70
2021/06/03 02:49:13;;;;;;;5.00;3.50;;;;;;;14.26;68.41;96922.22;3507290;40;20752;-70
2021/06/03 02:51:40;;;;;;;4.70;3.60;;;;;;;14.18;68.68;96922.81;3507534;40;21099;-69
2021/06/03 02:54:08;;;;;;;8.40;3.40;;;;;;;14.13;69.23;96927.59;3506631;40;20712;-70
2021/06/03 02:56:35;;;;;;;7.40;4.13;;;;;;;14.11;69.23;96925.06;3508029;40;20544;-70
2021/06/03 02:59:03;;;;;;;6.20;3.50;;;;;;;14.15;69.37;96939.72;3507919;40;20772;-72
2021/06/03 03:01:30;;;;;;;7.00;3.60;;;;;;;14.00;70.20;96944.34;3509118;40;20554;-73
2021/06/03 03:03:59;;;;;;;5.50;3.93;;;;;;;14.10;70.00;96936.56;3507436;40;20497;-70
2021/06/03 03:06:27;;;;;;;5.77;3.70;;;;;;;14.01;70.03;96935.50;3507581;40;20487;-71
2021/06/03 03:08:54;;;;;;;8.93;3.30;;;;;;;14.22;69.45;96938.25;3509010;40;20906;-70
2021/06/03 03:11:21;;;;;;;6.77;4.13;;;;;;;14.42;68.67;96947.22;3507749;40;20871;-71
2021/06/03 03:13:49;;;;;;;5.87;3.30;;;;;;;14.30;69.27;96953.47;3506268;40;20767;-70
2021/06/03 03:16:17;;;;;;;5.97;4.10;;;;;;;14.18;69.60;96951.78;3508198;40;20917;-70
2021/06/03 03:18:44;;;;;;;7.23;3.90;;;;;;;14.31;69.58;96956.91;3506547;40;20777;-70
2021/06/03 03:21:13;;;;;;;7.70;3.77;;;;;;;14.39;69.26;96952.75;3508430;40;20439;-70
2021/06/03 03:23:41;;;;;;;6.30;4.00;;;;;;;14.34;69.69;96952.25;3506293;40;20997;-70
2021/06/03 03:26:08;;;;;;;5.80;4.17;;;;;;;14.37;69.37;96948.56;3507079;40;20577;-69
2021/06/03 03:28:36;;;;;;;5.80;3.27;;;;;;;14.44;69.59;96950.59;3504523;40;20447;-71
2021/06/03 03:31:04;;;;;;;8.63;4.43;;;;;;;14.46;69.38;96954.88;3498033;40;20793;-69
2021/06/03 03:33:33;;;;;;;8.27;4.20;;;;;;;14.46;69.50;96953.09;3498728;40;20819;-69
2021/06/03 03:36:00;;;;;;;7.30;4.00;;;;;;;14.44;69.64;96952.38;3510578;40;20878;-71
2021/06/03 03:38:29;;;;;;;7.87;4.07;;;;;;;14.45;69.88;96951.44;3500493;40;20474;-70
2021/06/03 03:40:56;;;;;;;7.40;4.23;;;;;;;14.41;70.61;96958.72;3507881;40;20767;-69
2021/06/03 03:43:24;;;;;;;7.43;4.30;;;;;;;14.04;71.77;96951.06;3508881;40;20967;-69
2021/06/03 03:45:51;;;;;;;6.30;3.57;;;;;;;14.35;70.71;96950.47;3508387;40;20456;-70
2021/06/03 03:48:19;;;;;;;8.93;4.13;;;;;;;14.47;70.37;96953.94;3507250;40;20455;-69
2021/06/03 03:50:47;;;;;;;7.47;4.20;;;;;;;14.47;70.29;96952.16;3508241;40;20849;-69
2021/06/03 03:53:14;;;;;;;5.80;3.57;;;;;;;14.41;70.37;96955.25;3508016;40;20451;-69
2021/06/03 03:55:43;;;;;;;6.70;3.97;;;;;;;14.42;70.45;96959.56;3509283;40;20816;-68
2021/06/03 03:58:10;;;;;;;8.17;4.00;;;;;;;14.59;69.88;96953.00;3509409;40;20832;-70
2021/06/03 04:00:38;;;;;;;4.83;3.50;;;;;;;14.51;70.57;96950.94;3509344;40;20705;-70
2021/06/03 04:03:06;;;;;;;5.83;3.60;;;;;;;14.47;70.48;96949.50;3507756;40;20779;-69
2021/06/03 04:05:34;;;;;;;5.70;4.23;;;;;;;14.60;70.13;96952.88;3508270;40;20465;-70
2021/06/03 04:08:02;;;;;;;6.30;4.30;;;;;;;14.69;69.95;96959.22;3506668;40;20549;-69
2021/06/03 04:10:29;;;;;;;10.47;4.13;;;;;;;14.67;70.15;96961.13;3504403;40;20701;-70
2021/06/03 04:12:58;;;;;;;9.57;4.63;;;;;;;14.70;70.17;96970.59;3507648;40;20546;-71
2021/06/03 04:15:25;;;;;;;5.67;4.10;;;;;;;14.24;70.95;96975.00;3497159;40;20803;-69
2021/06/03 04:17:53;;;;;;;6.23;3.97;;;;;;;14.24;70.92;96983.75;3507848;40;20871;-70
2021/06/03 04:20:22;;;;;;;11.90;4.30;;;;;;;14.39;70.60;96987.00;3498382;40;20672;-69
2021/06/03 04:22:50;;;;;;;7.53;4.00;;;;;;;14.57;70.11;96987.38;3507149;40;20926;-68
2021/06/03 04:25:18;;;;;;;14.10;3.90;;;;;;;14.57;70.69;96994.44;3507238;40;21206;-70
2021/06/03 04:27:46;;;;;;;8.50;4.07;;;;;;;14.80;69.69;96992.63;3515352;40;20513;-69
2021/06/03 04:30:19;;;;;;;7.27;3.80;;;;;;;14.52;70.40;96997.41;3507377;40;20711;-71
2021/06/03 04:32:47;;;;;;;5.90;3.77;;;;;;;14.09;71.80;96969.13;3508415;40;20471;-69
2021/06/03 04:35:17;;;;;;;5.53;3.90;;;;;;;14.78;71.18;96998.03;3508399;40;20827;-70
2021/06/03 04:37:45;;;;;;;4.77;3.50;;;;;;;15.07;69.81;96994.84;3508116;40;20525;-69
2021/06/03 04:40:14;;;;;;;7.57;4.07;;;;;;;14.85;70.14;97000.16;3506551;40;20717;-68
2021/06/03 04:42:42;;;;;;;5.63;3.67;;;;;;;15.09;69.45;96994.72;3508096;40;20946;-70
2021/06/03 04:45:13;;;;;;;4.77;3.77;;;;;;;15.38;70.53;96992.34;3508400;40;20859;-69
2021/06/03 04:47:42;;;;;;;5.70;4.40;;;;;;;15.09;71.56;97003.47;3507587;40;20867;-68
2021/06/03 04:50:12;;;;;;;13.03;4.20;;;;;;;15.21;70.61;97010.41;3507208;40;20761;-69
2021/06/03 04:52:40;;;;;;;5.97;3.90;;;;;;;15.24;69.33;97011.94;3506196;40;20573;-68
2021/06/03 04:55:10;;;;;;;4.87;3.67;;;;;;;15.00;70.09;97004.22;3506873;40;20562;-71
2021/06/03 04:57:39;;;;;;;6.57;3.73;;;;;;;14.96;70.50;97018.63;3508186;40;21121;-70
2021/06/03 05:00:10;;;;;;;5.60;4.20;;;;;;;14.80;70.60;97022.47;3517617;40;20577;-70
2021/06/03 05:02:38;;;;;;;8.53;5.00;;;;;;;14.95;70.26;97023.03;3515713;40;20455;-69
2021/06/03 05:05:09;;;;;;;5.23;3.97;;;;;;;15.14;70.29;97022.41;3509423;40;20491;-70
2021/06/03 05:07:37;;;;;;;5.77;4.23;;;;;;;15.17;69.28;97011.63;3506720;40;20472;-71
2021/06/03 05:10:06;;;;;;;11.40;4.20;;;;;;;15.19;69.22;97030.78;3499985;40;20738;-71
2021/06/03 05:12:34;;;;;;;6.63;3.87;;;;;;;15.20;68.93;97031.63;3509744;40;20432;-70
2021/06/03 05:15:03;;;;;;;6.93;4.23;;;;;;;15.36;68.45;97033.84;3507728;40;20883;-68
2021/06/03 05:17:30;;;;;;;5.40;4.10;;;;;;;15.65;67.47;97035.94;3509155;40;20456;-70
2021/06/03 05:19:58;;;;;;;7.57;4.63;;;;;;;15.30;68.14;97021.16;3497411;40;20462;-69
2021/06/03 05:22:26;;;;;;;5.30;4.20;;;;;;;15.75;67.66;97036.88;3501301;40;20490;-68
2021/06/03 05:24:54;;;;;;;12.50;4.87;;;;;;;15.93;67.51;97039.78;3508609;40;20455;-69
2021/06/03 05:27:21;;;;;;;6.80;4.67;;;;;;;15.94;67.40;97038.81;3511287;40;20478;-69
2021/06/03 05:29:49;;;;;;;10.53;3.97;;;;;;;15.99;67.18;97026.06;3511437;40;20551;-69
2021/06/03 05:32:16;;;;;;;7.17;3.87;;;;;;;16.27;65.85;97039.56;3509133;40;20451;-71
2021/06/03 05:34:44;;;;;;;7.40;5.30;;;;;;;16.34;66.39;97043.38;3510703;40;20824;-69
2021/06/03 05:37:11;;;;;;;7.40;4.60;;;;;;;16.38;66.46;97042.97;3509614;40;20486;-70
2021/06/03 05:39:40;;;;;;;6.93;4.40;;;;;;;16.19;67.32;97051.66;3511142;40;20481;-70
2021/06/03 05:42:08;;;;;;;5.80;4.10;;;;;;;16.08;67.95;97048.22;3510730;40;20459;-69
2021/06/03 05:44:36;;;;;;;8.00;4.40;;;;;;;15.91;68.90;97045.19;3508055;40;20487;-70
2021/06/03 05:47:03;;;;;;;10.20;4.80;;;;;;;16.41;66.96;97048.00;3508079;40;20625;-71
2021/06/03 05:49:31;;;;;;;9.53;5.30;;;;;;;16.50;66.39;97042.91;3495540;40;20666;-70
2021/06/03 05:52:02;;;;;;;5.63;4.30;;;;;;;16.32;66.35;97054.06;3508420;40;20930;-74
2021/06/03 05:54:30;;;;;;;6.37;4.67;;;;;;;16.21;66.97;97056.81;3499697;40;20895;-71
2021/06/03 05:56:59;;;;;;;7.00;5.23;;;;;;;16.53;65.98;97054.06;3510562;40;20577;-71
2021/06/03 05:59:27;;;;;;;13.47;4.80;;;;;;;16.78;65.43;97058.06;3509298;40;21002;-69
2021/06/03 06:01:59;;;;;;;5.93;4.20;;;;;;;16.99;64.72;97043.97;3509717;40;20696;-69
2021/06/03 06:07:12;;;;;;;5.80;4.90;;;;;;;17.60;63.40;97061.47;3507916;40;20895;-71
2021/06/03 06:09:40;;;;;;;8.07;5.30;;;;;;;16.84;65.38;97069.09;3507663;40;20868;-70
2021/06/03 06:12:09;;;;;;;6.60;4.83;;;;;;;17.42;64.13;97060.50;3508568;40;20887;-71
2021/06/03 06:14:37;;;;;;;6.70;4.33;;;;;;;17.81;63.19;97061.38;3508254;40;20596;-71
2021/06/03 06:17:04;;;;;;;8.27;4.07;;;;;;;17.91;63.09;97059.56;3507631;40;20719;-72
2021/06/03 06:19:32;;;;;;;6.00;3.67;;;;;;;18.14;63.43;97057.47;3507639;40;20899;-72
2021/06/03 06:21:59;;;;;;;5.60;3.83;;;;;;;18.86;61.48;97067.66;3506909;40;20467;-71
2021/06/03 06:24:26;;;;;;;7.60;2.93;;;;;;;19.28;59.19;97067.97;3498440;40;20466;-70
2021/06/03 06:26:54;;;;;;;5.57;3.20;;;;;;;18.52;61.59;97068.13;3508774;40;20825;-72
2021/06/03 06:29:23;;;;;;;7.70;3.37;;;;;;;18.48;63.03;97066.75;3508106;40;20678;-69
2021/06/03 06:31:50;;;;;;;5.70;3.43;;;;;;;18.78;61.72;97057.75;3508596;40;20977;-69
2021/06/03 06:34:18;;;;;;;5.10;2.67;;;;;;;19.25;60.35;97073.59;3508215;40;21122;-70
2021/06/03 06:36:45;;;;;;;4.53;3.07;;;;;;;19.02;62.17;97075.81;3508828;40;20561;-68
2021/06/03 06:39:13;;;;;;;4.47;3.20;;;;;;;19.46;60.68;97069.84;3508421;40;21145;-70
2021/06/03 06:41:41;;;;;;;4.20;3.53;;;;;;;19.62;59.74;97075.34;3507878;40;20474;-69
2021/06/03 06:44:09;;;;;;;3.97;3.00;;;;;;;19.68;59.70;97068.56;3508203;40;20463;-69
2021/06/03 06:46:38;;;;;;;2.63;2.30;;;;;;;19.65;59.89;97069.72;3507443;40;20956;-69
2021/06/03 06:49:05;;;;;;;5.43;2.33;;;;;;;19.79;59.52;97071.03;3507839;40;20695;-71
2021/06/03 06:51:32;;;;;;;2.40;1.93;;;;;;;19.59;59.65;97077.47;3508493;40;20982;-69
2021/06/03 06:54:00;;;;;;;20.17;9.40;;;;;;;19.88;59.70;97056.84;3508090;40;20867;-71
2021/06/03 06:56:27;;;;;;;2.80;2.33;;;;;;;20.00;58.48;97081.38;3508637;40;20447;-68
2021/06/03 06:58:55;;;;;;;3.70;2.03;;;;;;;19.83;58.74;97083.03;3497572;40;20767;-69
2021/06/03 07:01:22;;;;;;;2.17;1.90;;;;;;;19.98;58.80;97079.84;3494401;40;20558;-71
2021/06/03 07:03:51;;;;;;;4.17;2.17;;;;;;;20.26;59.01;97078.75;3507304;40;20531;-70
2021/06/03 07:06:19;;;;;;;5.83;1.97;;;;;;;20.56;57.20;97079.28;3508568;40;20463;-71
2021/06/03 07:08:46;;;;;;;3.57;2.20;;;;;;;20.89;56.74;97084.81;3506992;40;20518;-71
2021/06/03 07:11:13;;;;;;;5.07;2.70;;;;;;;21.10;55.68;97085.25;3508323;40;20538;-71
2021/06/03 07:13:41;;;;;;;4.53;2.40;;;;;;;21.31;55.85;97076.88;3498171;40;20708;-71
2021/06/03 07:16:09;;;;;;;4.50;2.33;;;;;;;21.75;54.51;97081.16;3507404;40;20935;-69
2021/06/03 07:18:36;;;;;;;5.13;2.20;;;;;;;21.50;53.89;97081.13;3505823;40;20751;-70
2021/06/03 07:21:05;;;;;;;6.50;2.37;;;;;;;21.58;54.39;97084.78;3506639;40;20443;-68
2021/06/03 07:23:33;;;;;;;7.63;2.17;;;;;;;22.19;52.14;97086.22;3506026;40;20674;-70
2021/06/03 07:26:00;;;;;;;4.73;2.10;;;;;;;21.85;53.70;97081.84;3507094;40;20503;-70
2021/06/03 07:28:29;;;;;;;9.50;2.50;;;;;;;21.62;53.07;97081.66;3506361;40;20832;-69
2021/06/03 07:30:56;;;;;;;4.60;2.47;;;;;;;21.71;53.31;97078.00;3508194;40;20569;-70
2021/06/03 07:33:24;;;;;;;3.47;1.80;;;;;;;21.67;52.61;97078.50;3507674;40;20582;-71
2021/06/03 07:35:51;;;;;;;4.67;2.17;;;;;;;22.09;52.86;97078.38;3508279;40;20867;-69
2021/06/03 07:38:20;;;;;;;3.03;1.90;;;;;;;21.75;53.33;97077.69;3507138;40;20436;-71
2021/06/03 07:40:47;;;;;;;5.10;2.43;;;;;;;21.53;54.26;97079.97;3505934;40;20902;-71
2021/06/03 07:43:15;;;;;;;1.97;1.70;;;;;;;21.44;54.85;97071.09;3506204;40;21154;-71
2021/06/03 07:45:43;;;;;;;15.00;2.70;;;;;;;21.71;54.15;97079.81;3510640;40;21101;-71
2021/06/03 07:48:11;;;;;;;3.93;2.00;;;;;;;21.60;54.23;97075.66;3498939;40;20566;-71
2021/06/03 07:50:39;;;;;;;5.10;2.50;;;;;;;21.98;54.01;97075.22;3507961;40;20497;-71
2021/06/03 07:53:08;;;;;;;4.57;2.30;;;;;;;21.41;54.66;97079.41;3498594;40;20951;-70
2021/06/03 07:55:37;;;;;;;3.20;2.00;;;;;;;21.86;54.45;97083.53;3508881;40;20447;-71
2021/06/03 07:58:09;;;;;;;3.20;2.20;;;;;;;21.70;54.94;97084.34;3508067;40;20444;-71
2021/06/03 08:00:36;;;;;;;7.10;2.37;;;;;;;21.72;54.26;97082.34;3505464;40;20840;-70
2021/06/03 08:03:05;;;;;;;5.23;2.70;;;;;;;21.84;53.32;97082.03;3508328;40;20732;-70
2021/06/03 08:05:33;;;;;;;3.33;2.73;;;;;;;21.95;53.75;97087.00;3508542;40;20546;-69
2021/06/03 08:08:01;;;;;;;2.90;2.20;;;;;;;21.93;53.61;97078.34;3508456;40;20968;-70
2021/06/03 08:10:32;;;;;;;8.03;2.60;;;;;;;21.60;54.43;97085.47;3508095;40;20907;-69
2021/06/03 08:13:01;;;;;;;4.97;1.73;;;;;;;21.72;55.36;97081.50;3507337;40;20765;-71
2021/06/03 08:15:31;;;;;;;10.13;2.07;;;;;;;21.87;55.29;97079.84;3509904;40;20689;-70
2021/06/03 08:17:59;;;;;;;6.17;2.63;;;;;;;21.90;54.08;97078.69;3508224;40;21136;-70
2021/06/03 08:20:33;;;;;;;8.03;2.30;;;;;;;21.68;54.23;97072.19;3508013;40;20867;-69
2021/06/03 08:23:05;;;;;;;5.23;2.30;;;;;;;22.48;52.26;97080.41;3508117;40;20868;-70
2021/06/03 08:25:33;;;;;;;4.50;2.53;;;;;;;21.97;53.69;97077.00;3499140;40;20472;-71
2021/06/03 08:28:02;;;;;;;10.67;2.70;;;;;;;23.06;51.00;97069.59;3498596;40;21003;-72
2021/06/03 08:30:30;;;;;;;4.97;2.17;;;;;;;22.74;51.82;97071.34;3497649;40;20480;-71
2021/06/03 08:32:58;;;;;;;3.50;2.00;;;;;;;24.15;47.84;97083.03;3499908;40;20472;-70
2021/06/03 08:35:26;;;;;;;3.80;2.43;;;;;;;23.97;48.14;97073.50;3497884;40;20480;-70
2021/06/03 08:37:56;;;;;;;3.90;2.37;;;;;;;24.30;47.31;97072.38;3498341;40;20999;-70
2021/06/03 08:40:27;;;;;;;5.77;1.93;;;;;;;24.82;45.83;97079.63;3495789;40;20476;-70
2021/06/03 08:42:57;;;;;;;8.80;2.30;;;;;;;23.27;49.19;97077.03;3497270;40;20647;-70
2021/06/03 08:45:27;;;;;;;4.80;2.37;;;;;;;24.53;46.24;97073.19;3496936;40;20509;-70
2021/06/03 08:47:55;;;;;;;6.47;2.17;;;;;;;25.69;44.81;97062.78;3498026;40;20761;-70
2021/06/03 08:50:25;;;;;;;4.33;1.70;;;;;;;26.45;43.23;97075.72;3497808;40;20472;-71
2021/06/03 08:52:53;;;;;;;4.90;2.47;;;;;;;26.97;40.91;97070.94;3487139;40;20518;-71
2021/06/03 08:58:10;;;;;;;3.53;1.80;;;;;;;26.77;42.06;97070.81;3496588;40;20452;-69
2021/06/03 09:00:42;;;;;;;4.73;2.07;;;;;;;27.61;41.40;97062.56;3496887;40;20677;-71
2021/06/03 09:03:10;;;;;;;4.40;2.00;;;;;;;28.08;40.02;97073.47;3498682;40;20748;-72
2021/06/03 09:05:39;;;;;;;3.00;1.83;;;;;;;27.50;41.02;97068.56;3497822;40;20449;-70
2021/06/03 09:08:21;;;;;;;3.40;1.83;;;;;;;27.55;40.97;97076.00;3496192;40;20468;-70
2021/06/03 09:10:51;;;;;;;3.10;2.10;;;;;;;27.96;39.47;97069.72;3498617;40;20731;-70
2021/06/03 09:13:20;;;;;;;3.70;1.90;;;;;;;27.53;40.86;97062.75;3496861;40;20555;-70
2021/06/03 09:15:52;;;;;;;2.47;1.60;;;;;;;26.54;41.78;97061.13;3497533;40;20810;-70
2021/06/03 09:18:27;;;;;;;4.10;1.30;;;;;;;27.12;41.40;97057.38;3496385;40;20488;-70
2021/06/03 09:20:55;;;;;;;3.30;2.03;;;;;;;26.50;42.59;97059.88;3497828;40;20451;-70
2021/06/03 09:23:29;;;;;;;17.13;9.13;;;;;;;25.95;43.81;97061.44;3496691;40;20461;-70
2021/06/03 09:25:58;;;;;;;9.23;5.67;;;;;;;26.51;42.52;97053.47;3498485;40;20464;-70
2021/06/03 09:28:31;;;;;;;4.57;1.90;;;;;;;26.52;42.01;97057.81;3496452;40;20877;-70
2021/06/03 09:31:07;;;;;;;1.70;1.57;;;;;;;27.41;40.48;97061.69;3498025;40;20804;-70
2021/06/03 09:33:50;;;;;;;2.70;1.87;;;;;;;27.26;41.73;97063.69;3497978;40;20701;-69
2021/06/03 09:36:20;;;;;;;3.70;1.50;;;;;;;27.21;40.92;97046.25;3495875;40;20873;-70
2021/06/03 09:39:01;;;;;;;4.57;2.10;;;;;;;28.74;38.89;97055.69;3497687;40;20452;-69
2021/06/03 09:41:30;;;;;;;6.10;2.67;;;;;;;28.40;38.28;97053.00;3497348;40;20806;-70
2021/06/03 09:44:10;;;;;;;3.37;2.07;;;;;;;28.16;37.88;97062.50;3498206;40;20468;-70
2021/06/03 09:46:43;;;;;;;7.33;1.90;;;;;;;25.56;42.72;97046.56;3498299;40;20671;-70
2021/06/03 09:49:18;;;;;;;8.20;4.97;;;;;;;26.78;40.46;97051.81;3498893;40;20843;-70
2021/06/03 09:51:47;;;;;;;2.10;1.63;;;;;;;26.51;40.71;97049.94;3498533;40;20833;-70
2021/06/03 09:54:16;;;;;;;8.43;1.90;;;;;;;27.64;38.05;97047.91;3498517;40;20480;-70
2021/06/03 09:56:46;;;;;;;6.07;1.90;;;;;;;26.73;39.17;97048.88;3487415;40;20869;-70
2021/06/03 09:59:21;;;;;;;2.07;1.50;;;;;;;26.22;39.86;97035.69;3497619;40;20472;-70
2021/06/03 10:02:01;;;;;;;4.73;2.10;;;;;;;25.08;45.97;97054.22;3498803;40;20440;-70
2021/06/03 10:04:38;;;;;;;4.30;2.20;;;;;;;23.41;53.05;97067.44;3497351;40;20471;-70
2021/06/03 10:07:11;;;;;;;6.10;2.20;;;;;;;22.84;54.76;97071.16;3498276;40;20468;-70
2021/06/03 10:09:49;;;;;;;3.83;2.33;;;;;;;22.85;54.61;97068.28;3496862;40;20931;-70
2021/06/03 10:12:42;;;;;;;4.33;2.40;;;;;;;22.43;56.70;97073.91;3497302;40;20459;-72
2021/06/03 10:15:33;;;;;;;6.53;2.27;;;;;;;22.37;56.63;97080.72;3486641;40;20914;-69
2021/06/03 10:18:04;;;;;;;5.47;2.10;;;;;;;22.36;56.98;97089.72;3498181;40;20543;-69
2021/06/03 10:20:37;;;;;;;2.13;1.83;;;;;;;22.42;56.47;97093.56;3498194;40;20506;-72
2021/06/03 10:23:05;;;;;;;4.83;1.97;;;;;;;21.95;56.13;97102.19;3498765;40;20495;-70
2021/06/03 10:25:34;;;;;;;4.83;1.60;;;;;;;21.33;57.64;97106.00;3499314;40;20575;-69
2021/06/03 10:28:05;;;;;;;6.40;2.30;;;;;;;21.01;60.17;97104.88;3497507;40;20871;-70
2021/06/03 10:30:35;;;;;;;3.83;2.53;;;;;;;20.87;61.51;97119.56;3497714;40;20736;-70
2021/06/03 10:33:06;;;;;;;3.60;2.00;;;;;;;21.48;60.80;97104.44;3498281;40;20788;-70
2021/06/03 10:35:36;;;;;;;3.30;1.63;;;;;;;21.62;58.48;97110.97;3497840;40;20779;-69
2021/06/03 10:38:06;;;;;;;3.73;1.83;;;;;;;21.66;58.93;97091.00;3496291;40;20860;-71
2021/06/03 10:40:35;;;;;;;2.23;1.37;;;;;;;21.39;59.37;97102.69;3498770;40;21110;-71
2021/06/03 10:43:05;;;;;;;2.40;1.50;;;;;;;21.69;57.62;97100.47;3490694;40;20630;-70
2021/06/03 10:45:36;;;;;;;5.13;1.87;;;;;;;21.67;57.03;97099.81;3499407;40;20702;-70
2021/06/03 10:48:07;;;;;;;72.97;42.97;;;;;;;21.86;56.11;97091.53;3498375;40;20487;-70
2021/06/03 10:50:39;;;;;;;4.60;3.20;;;;;;;21.84;55.80;97096.19;3499208;40;20781;-70
2021/06/03 10:53:08;;;;;;;1.57;1.20;;;;;;;22.12;54.28;97093.19;3498718;40;20829;-71
2021/06/03 10:55:38;;;;;;;2.97;1.70;;;;;;;22.22;54.12;97093.03;3498625;40;20662;-71
2021/06/03 10:58:07;;;;;;;8.53;1.40;;;;;;;22.34;52.50;97093.56;3499616;40;20864;-69
2021/06/03 11:00:37;;;;;;;1.70;1.20;;;;;;;22.76;52.45;97087.16;3499496;40;20437;-70
2021/06/03 11:03:07;;;;;;;1.73;1.10;;;;;;;22.54;51.44;97081.53;3497398;40;20472;-71
2021/06/03 11:05:36;;;;;;;5.87;1.33;;;;;;;22.57;50.87;97096.41;3499473;40;21201;-71
2021/06/03 11:08:23;;;;;;;2.57;1.50;;;;;;;22.60;51.35;97090.69;3501219;40;20465;-71
2021/06/03 11:10:51;;;;;;;3.03;1.37;;;;;;;22.66;53.36;97085.53;3488761;40;21135;-70
2021/06/03 11:13:20;;;;;;;2.93;1.53;;;;;;;22.84;52.53;97081.84;3501169;40;20836;-70
2021/06/03 11:16:09;;;;;;;3.60;1.63;;;;;;;22.65;52.26;97080.34;3498435;40;20903;-71
2021/06/03 11:19:12;;;;;;;2.10;1.87;;;;;;;22.65;52.59;97078.50;3497004;40;20874;-71
2021/06/03 11:22:08;;;;;;;6.57;2.00;;;;;;;22.75;53.04;97082.84;3448464;41;20834;-70
2021/06/03 11:24:49;;;;;;;1.57;1.47;;;;;;;23.07;50.03;97073.91;3442076;41;20467;-71
2021/06/03 11:27:19;;;;;;;3.37;1.20;;;;;;;23.22;50.49;97079.38;3447379;41;20480;-71
2021/06/03 11:30:00;;;;;;;2.13;1.60;;;;;;;23.08;51.70;97078.28;3450583;41;20539;-70
2021/06/03 11:32:30;;;;;;;2.53;1.40;;;;;;;22.80;52.61;97077.84;3441542;41;21171;-71
2021/06/03 11:35:01;;;;;;;2.30;1.33;;;;;;;22.08;53.51;97075.88;3449447;41;20653;-71
2021/06/03 11:37:43;;;;;;;2.03;1.30;;;;;;;22.37;52.65;97074.56;3449085;41;20480;-70
2021/06/03 11:40:19;;;;;;;2.50;1.60;;;;;;;23.19;50.30;97061.03;3448154;41;20781;-71
2021/06/03 11:42:48;;;;;;;7.90;1.20;;;;;;;23.40;50.29;97074.59;3448107;41;20853;-71
2021/06/03 11:45:23;;;;;;;1.50;1.30;;;;;;;23.56;49.27;97072.88;3447694;41;20480;-71
2021/06/03 11:48:11;;;;;;;2.03;1.27;;;;;;;24.04;47.79;97076.25;3448859;41;20819;-72